You are not logged in, Click here to log in
機場資訊:LOWI Welcome to Taiwan Airways 台灣虛擬航空
ICAO: LOWI Country: 奧地利西部最大的國際機場,位於蒂羅爾州,坐落在距離因斯布魯克市中心約2.5英里外的郊區
Latitude: 47.2602 Longitude: 11.344
Total Arrivals: 6 Total Departures: 3
Latest Arrival: FS01 (EDDC-LOWI)CHU. CHUHAO Latest Departure: OS902 (LOWI-LOWW)Arthur. Kung
Scenery:
METAR : LOWI 141620Z 06011G24KT 020V100 CAVOK 09/M06 Q1003 WS ALL RWY R08/29//95 NOSIG

因斯布魯克機場INN